sensor_id;sensor_type;location;lat;lon;timestamp;P1;durP1;ratioP1;P2;durP2;ratioP2
40847;SDS011;26570;50.962;5.340;2022-09-28T00:00:36;2.63;;;1.13;;
40847;SDS011;26570;50.962;5.340;2022-09-28T00:03:25;3.63;;;1.87;;
40847;SDS011;26570;50.962;5.340;2022-09-28T00:06:12;4.10;;;2.00;;
40847;SDS011;26570;50.962;5.340;2022-09-28T00:08:59;5.03;;;2.40;;
40847;SDS011;26570;50.962;5.340;2022-09-28T00:11:46;9.27;;;2.33;;
40847;SDS011;26570;50.962;5.340;2022-09-28T00:14:32;5.10;;;2.70;;
40847;SDS011;26570;50.962;5.340;2022-09-28T00:17:17;12.27;;;3.70;;
40847;SDS011;26570;50.962;5.340;2022-09-28T00:20:05;6.17;;;3.00;;
40847;SDS011;26570;50.962;5.340;2022-09-28T00:22:51;7.80;;;3.97;;
40847;SDS011;26570;50.962;5.340;2022-09-28T00:25:36;7.67;;;3.30;;
40847;SDS011;26570;50.962;5.340;2022-09-28T00:28:23;8.03;;;3.20;;
40847;SDS011;26570;50.962;5.340;2022-09-28T00:31:08;6.57;;;3.53;;
40847;SDS011;26570;50.962;5.340;2022-09-28T00:33:54;9.10;;;5.17;;
40847;SDS011;26570;50.962;5.340;2022-09-28T00:36:44;13.47;;;5.47;;
40847;SDS011;26570;50.962;5.340;2022-09-28T00:45:11;9.60;;;6.93;;
40847;SDS011;26570;50.962;5.340;2022-09-28T00:47:57;9.27;;;6.73;;
40847;SDS011;26570;50.962;5.340;2022-09-28T00:50:44;15.60;;;8.00;;
40847;SDS011;26570;50.962;5.340;2022-09-28T00:53:31;14.23;;;8.33;;
40847;SDS011;26570;50.962;5.340;2022-09-28T00:56:21;10.83;;;7.53;;
40847;SDS011;26570;50.962;5.340;2022-09-28T00:59:13;19.33;;;8.97;;
40847;SDS011;26570;50.962;5.340;2022-09-28T01:01:59;20.93;;;10.77;;
40847;SDS011;26570;50.962;5.340;2022-09-28T01:04:45;18.77;;;11.10;;
40847;SDS011;26570;50.962;5.340;2022-09-28T01:07:32;21.57;;;10.67;;
40847;SDS011;26570;50.962;5.340;2022-09-28T01:10:19;20.07;;;10.20;;
40847;SDS011;26570;50.962;5.340;2022-09-28T01:13:06;17.57;;;9.67;;
40847;SDS011;26570;50.962;5.340;2022-09-28T01:31:11;17.33;;;10.60;;
40847;SDS011;26570;50.962;5.340;2022-09-28T01:34:07;14.70;;;9.60;;
40847;SDS011;26570;50.962;5.340;2022-09-28T01:36:59;17.23;;;8.87;;
40847;SDS011;26570;50.962;5.340;2022-09-28T01:39:48;12.33;;;8.07;;
40847;SDS011;26570;50.962;5.340;2022-09-28T01:42:36;12.93;;;8.57;;
40847;SDS011;26570;50.962;5.340;2022-09-28T01:45:27;14.87;;;8.77;;
40847;SDS011;26570;50.962;5.340;2022-09-28T01:48:17;11.20;;;8.30;;
40847;SDS011;26570;50.962;5.340;2022-09-28T01:51:11;17.25;;;8.30;;
40847;SDS011;26570;50.962;5.340;2022-09-28T01:54:13;15.07;;;8.27;;
40847;SDS011;26570;50.962;5.340;2022-09-28T01:57:14;17.13;;;8.20;;
40847;SDS011;26570;50.962;5.340;2022-09-28T02:00:06;11.50;;;7.23;;
40847;SDS011;26570;50.962;5.340;2022-09-28T02:03:17;9.37;;;6.50;;
40847;SDS011;26570;50.962;5.340;2022-09-28T02:06:25;12.40;;;6.50;;
40847;SDS011;26570;50.962;5.340;2022-09-28T02:09:21;13.50;;;6.43;;
40847;SDS011;26570;50.962;5.340;2022-09-28T02:12:24;8.83;;;5.47;;
40847;SDS011;26570;50.962;5.340;2022-09-28T02:15:25;7.33;;;4.87;;
40847;SDS011;26570;50.962;5.340;2022-09-28T02:18:32;11.63;;;5.37;;
40847;SDS011;26570;50.962;5.340;2022-09-28T02:21:22;12.23;;;5.27;;
40847;SDS011;26570;50.962;5.340;2022-09-28T02:24:11;5.27;;;4.13;;
40847;SDS011;26570;50.962;5.340;2022-09-28T02:27:02;10.20;;;4.70;;
40847;SDS011;26570;50.962;5.340;2022-09-28T02:29:56;6.97;;;3.97;;
40847;SDS011;26570;50.962;5.340;2022-09-28T02:32:44;8.80;;;4.07;;
40847;SDS011;26570;50.962;5.340;2022-09-28T02:35:34;7.43;;;3.73;;
40847;SDS011;26570;50.962;5.340;2022-09-28T02:38:22;11.13;;;3.30;;
40847;SDS011;26570;50.962;5.340;2022-09-28T02:47:34;13.20;;;4.73;;
40847;SDS011;26570;50.962;5.340;2022-09-28T02:50:45;6.70;;;3.83;;
40847;SDS011;26570;50.962;5.340;2022-09-28T02:59:31;5.90;;;3.50;;
40847;SDS011;26570;50.962;5.340;2022-09-28T03:05:57;10.47;;;5.20;;
40847;SDS011;26570;50.962;5.340;2022-09-28T03:08:53;11.93;;;5.40;;
40847;SDS011;26570;50.962;5.340;2022-09-28T03:11:54;9.60;;;4.73;;
40847;SDS011;26570;50.962;5.340;2022-09-28T03:14:44;9.23;;;4.83;;
40847;SDS011;26570;50.962;5.340;2022-09-28T03:17:31;10.90;;;3.83;;
40847;SDS011;26570;50.962;5.340;2022-09-28T03:20:17;11.50;;;3.83;;
40847;SDS011;26570;50.962;5.340;2022-09-28T03:23:03;9.83;;;3.40;;
40847;SDS011;26570;50.962;5.340;2022-09-28T03:25:49;7.70;;;4.03;;
40847;SDS011;26570;50.962;5.340;2022-09-28T03:28:35;8.37;;;4.00;;
40847;SDS011;26570;50.962;5.340;2022-09-28T03:31:21;6.33;;;4.00;;
40847;SDS011;26570;50.962;5.340;2022-09-28T03:34:07;13.03;;;5.70;;
40847;SDS011;26570;50.962;5.340;2022-09-28T03:36:52;10.10;;;6.17;;
40847;SDS011;26570;50.962;5.340;2022-09-28T03:39:39;13.33;;;6.50;;
40847;SDS011;26570;50.962;5.340;2022-09-28T03:42:25;11.27;;;7.40;;
40847;SDS011;26570;50.962;5.340;2022-09-28T03:45:12;11.53;;;7.40;;
40847;SDS011;26570;50.962;5.340;2022-09-28T03:47:59;17.03;;;8.73;;
40847;SDS011;26570;50.962;5.340;2022-09-28T03:50:46;18.23;;;8.83;;
40847;SDS011;26570;50.962;5.340;2022-09-28T03:53:32;12.03;;;9.53;;
40847;SDS011;26570;50.962;5.340;2022-09-28T03:56:18;25.80;;;10.30;;
40847;SDS011;26570;50.962;5.340;2022-09-28T03:59:05;18.17;;;10.83;;
40847;SDS011;26570;50.962;5.340;2022-09-28T04:01:50;20.00;;;12.57;;
40847;SDS011;26570;50.962;5.340;2022-09-28T04:04:36;21.47;;;11.87;;
40847;SDS011;26570;50.962;5.340;2022-09-28T04:07:22;24.53;;;13.03;;
40847;SDS011;26570;50.962;5.340;2022-09-28T04:10:07;26.17;;;12.53;;
40847;SDS011;26570;50.962;5.340;2022-09-28T04:12:55;19.87;;;12.40;;
40847;SDS011;26570;50.962;5.340;2022-09-28T04:15:41;23.47;;;13.60;;
40847;SDS011;26570;50.962;5.340;2022-09-28T04:18:36;18.03;;;13.03;;
40847;SDS011;26570;50.962;5.340;2022-09-28T04:21:22;21.50;;;13.17;;
40847;SDS011;26570;50.962;5.340;2022-09-28T04:24:09;23.47;;;13.37;;
40847;SDS011;26570;50.962;5.340;2022-09-28T04:26:55;25.63;;;14.03;;
40847;SDS011;26570;50.962;5.340;2022-09-28T04:30:00;24.03;;;14.03;;
40847;SDS011;26570;50.962;5.340;2022-09-28T04:32:46;25.53;;;13.90;;
40847;SDS011;26570;50.962;5.340;2022-09-28T04:35:32;23.97;;;13.40;;
40847;SDS011;26570;50.962;5.340;2022-09-28T04:38:18;24.83;;;14.10;;
40847;SDS011;26570;50.962;5.340;2022-09-28T04:41:04;27.43;;;15.50;;
40847;SDS011;26570;50.962;5.340;2022-09-28T04:43:50;27.43;;;15.70;;
40847;SDS011;26570;50.962;5.340;2022-09-28T04:46:36;26.17;;;15.10;;
40847;SDS011;26570;50.962;5.340;2022-09-28T04:49:23;23.93;;;14.57;;
40847;SDS011;26570;50.962;5.340;2022-09-28T04:52:10;30.47;;;14.53;;
40847;SDS011;26570;50.962;5.340;2022-09-28T04:54:56;21.93;;;13.27;;
40847;SDS011;26570;50.962;5.340;2022-09-28T04:57:42;21.87;;;13.93;;
40847;SDS011;26570;50.962;5.340;2022-09-28T05:00:30;23.03;;;12.90;;
40847;SDS011;26570;50.962;5.340;2022-09-28T05:03:18;20.23;;;13.80;;
40847;SDS011;26570;50.962;5.340;2022-09-28T05:06:04;23.53;;;14.10;;
40847;SDS011;26570;50.962;5.340;2022-09-28T05:08:54;19.30;;;12.60;;
40847;SDS011;26570;50.962;5.340;2022-09-28T05:11:41;20.10;;;13.30;;
40847;SDS011;26570;50.962;5.340;2022-09-28T05:14:26;21.57;;;12.77;;
40847;SDS011;26570;50.962;5.340;2022-09-28T05:17:13;28.67;;;15.57;;
40847;SDS011;26570;50.962;5.340;2022-09-28T05:19:59;26.40;;;15.37;;
40847;SDS011;26570;50.962;5.340;2022-09-28T05:22:46;27.60;;;16.47;;
40847;SDS011;26570;50.962;5.340;2022-09-28T05:25:33;28.67;;;16.47;;
40847;SDS011;26570;50.962;5.340;2022-09-28T05:28:23;38.90;;;16.87;;
40847;SDS011;26570;50.962;5.340;2022-09-28T05:31:15;32.17;;;16.37;;
40847;SDS011;26570;50.962;5.340;2022-09-28T05:34:02;28.77;;;15.87;;
40847;SDS011;26570;50.962;5.340;2022-09-28T05:36:47;32.70;;;15.20;;
40847;SDS011;26570;50.962;5.340;2022-09-28T05:39:33;23.83;;;14.37;;
40847;SDS011;26570;50.962;5.340;2022-09-28T05:42:20;26.57;;;13.87;;
40847;SDS011;26570;50.962;5.340;2022-09-28T05:45:15;18.63;;;12.13;;
40847;SDS011;26570;50.962;5.340;2022-09-28T05:48:00;30.75;;;13.65;;
40847;SDS011;26570;50.962;5.340;2022-09-28T05:50:49;22.80;;;12.83;;
40847;SDS011;26570;50.962;5.340;2022-09-28T05:53:37;25.33;;;12.03;;
40847;SDS011;26570;50.962;5.340;2022-09-28T05:56:22;21.70;;;13.30;;
40847;SDS011;26570;50.962;5.340;2022-09-28T05:59:07;21.37;;;13.47;;
40847;SDS011;26570;50.962;5.340;2022-09-28T06:01:52;18.67;;;12.40;;
40847;SDS011;26570;50.962;5.340;2022-09-28T06:04:37;23.17;;;12.90;;
40847;SDS011;26570;50.962;5.340;2022-09-28T06:07:22;26.20;;;14.13;;
40847;SDS011;26570;50.962;5.340;2022-09-28T06:10:07;25.60;;;14.27;;
40847;SDS011;26570;50.962;5.340;2022-09-28T06:12:53;27.20;;;13.93;;
40847;SDS011;26570;50.962;5.340;2022-09-28T06:15:40;26.13;;;14.37;;
40847;SDS011;26570;50.962;5.340;2022-09-28T06:18:25;31.53;;;14.13;;
40847;SDS011;26570;50.962;5.340;2022-09-28T06:21:11;21.37;;;13.23;;
40847;SDS011;26570;50.962;5.340;2022-09-28T06:23:59;26.63;;;13.63;;
40847;SDS011;26570;50.962;5.340;2022-09-28T06:26:46;19.90;;;12.77;;
40847;SDS011;26570;50.962;5.340;2022-09-28T06:29:31;26.77;;;13.30;;
40847;SDS011;26570;50.962;5.340;2022-09-28T06:32:16;24.70;;;11.50;;
40847;SDS011;26570;50.962;5.340;2022-09-28T06:35:01;18.10;;;10.37;;
40847;SDS011;26570;50.962;5.340;2022-09-28T06:37:46;22.40;;;10.17;;
40847;SDS011;26570;50.962;5.340;2022-09-28T06:40:31;21.03;;;11.77;;
40847;SDS011;26570;50.962;5.340;2022-09-28T06:43:20;13.33;;;7.70;;
40847;SDS011;26570;50.962;5.340;2022-09-28T06:46:05;6.27;;;4.20;;
40847;SDS011;26570;50.962;5.340;2022-09-28T06:48:52;7.10;;;2.00;;
40847;SDS011;26570;50.962;5.340;2022-09-28T06:51:37;4.60;;;1.00;;
40847;SDS011;26570;50.962;5.340;2022-09-28T06:54:22;4.07;;;0.67;;
40847;SDS011;26570;50.962;5.340;2022-09-28T06:57:08;1.43;;;0.53;;
40847;SDS011;26570;50.962;5.340;2022-09-28T06:59:53;2.13;;;0.70;;
40847;SDS011;26570;50.962;5.340;2022-09-28T07:02:38;2.60;;;0.70;;
40847;SDS011;26570;50.962;5.340;2022-09-28T07:05:24;2.23;;;0.50;;
40847;SDS011;26570;50.962;5.340;2022-09-28T07:08:13;2.50;;;0.50;;
40847;SDS011;26570;50.962;5.340;2022-09-28T07:10:59;2.08;;;0.47;;
40847;SDS011;26570;50.962;5.340;2022-09-28T07:13:49;1.52;;;0.40;;
40847;SDS011;26570;50.962;5.340;2022-09-28T07:16:34;1.95;;;0.50;;
40847;SDS011;26570;50.962;5.340;2022-09-28T07:19:18;1.08;;;0.32;;
40847;SDS011;26570;50.962;5.340;2022-09-28T07:22:04;1.55;;;0.30;;
40847;SDS011;26570;50.962;5.340;2022-09-28T07:24:48;1.40;;;0.30;;
40847;SDS011;26570;50.962;5.340;2022-09-28T07:27:33;2.33;;;0.63;;
40847;SDS011;26570;50.962;5.340;2022-09-28T07:30:22;0.98;;;0.30;;
40847;SDS011;26570;50.962;5.340;2022-09-28T07:33:10;1.08;;;0.30;;
40847;SDS011;26570;50.962;5.340;2022-09-28T07:35:55;2.85;;;0.30;;
40847;SDS011;26570;50.962;5.340;2022-09-28T07:38:40;1.50;;;0.40;;
40847;SDS011;26570;50.962;5.340;2022-09-28T07:41:24;2.30;;;0.30;;
40847;SDS011;26570;50.962;5.340;2022-09-28T07:44:15;3.33;;;0.30;;
40847;SDS011;26570;50.962;5.340;2022-09-28T07:47:02;4.40;;;0.30;;
40847;SDS011;26570;50.962;5.340;2022-09-28T07:49:47;1.52;;;0.30;;
40847;SDS011;26570;50.962;5.340;2022-09-28T07:52:35;3.70;;;0.68;;
40847;SDS011;26570;50.962;5.340;2022-09-28T07:55:19;2.73;;;0.30;;
40847;SDS011;26570;50.962;5.340;2022-09-28T07:58:04;1.53;;;0.33;;
40847;SDS011;26570;50.962;5.340;2022-09-28T08:00:49;1.40;;;0.20;;
40847;SDS011;26570;50.962;5.340;2022-09-28T08:03:35;1.58;;;0.20;;
40847;SDS011;26570;50.962;5.340;2022-09-28T08:06:20;1.58;;;0.30;;
40847;SDS011;26570;50.962;5.340;2022-09-28T08:09:06;0.82;;;0.25;;
40847;SDS011;26570;50.962;5.340;2022-09-28T08:11:53;1.65;;;0.20;;
40847;SDS011;26570;50.962;5.340;2022-09-28T08:14:38;1.08;;;0.30;;
40847;SDS011;26570;50.962;5.340;2022-09-28T08:17:24;1.95;;;0.30;;
40847;SDS011;26570;50.962;5.340;2022-09-28T08:20:09;1.67;;;0.40;;
40847;SDS011;26570;50.962;5.340;2022-09-28T08:23:12;2.13;;;0.32;;
40847;SDS011;26570;50.962;5.340;2022-09-28T08:25:57;2.25;;;0.40;;
40847;SDS011;26570;50.962;5.340;2022-09-28T08:28:42;1.80;;;0.40;;
40847;SDS011;26570;50.962;5.340;2022-09-28T08:31:28;4.82;;;0.40;;
40847;SDS011;26570;50.962;5.340;2022-09-28T08:34:14;4.53;;;0.40;;
40847;SDS011;26570;50.962;5.340;2022-09-28T08:36:59;2.77;;;0.40;;
40847;SDS011;26570;50.962;5.340;2022-09-28T08:39:43;2.60;;;0.40;;
40847;SDS011;26570;50.962;5.340;2022-09-28T08:42:39;4.83;;;0.40;;
40847;SDS011;26570;50.962;5.340;2022-09-28T08:45:26;2.50;;;0.30;;
40847;SDS011;26570;50.962;5.340;2022-09-28T08:51:23;1.67;;;0.30;;
40847;SDS011;26570;50.962;5.340;2022-09-28T09:00:08;1.52;;;0.28;;
40847;SDS011;26570;50.962;5.340;2022-09-28T09:03:05;1.83;;;0.30;;
40847;SDS011;26570;50.962;5.340;2022-09-28T09:06:15;1.45;;;0.20;;
40847;SDS011;26570;50.962;5.340;2022-09-28T09:24:47;1.10;;;0.20;;
40847;SDS011;26570;50.962;5.340;2022-09-28T09:30:24;2.13;;;0.10;;
40847;SDS011;26570;50.962;5.340;2022-09-28T09:33:28;2.03;;;0.20;;
40847;SDS011;26570;50.962;5.340;2022-09-28T09:45:48;1.20;;;0.17;;
40847;SDS011;26570;50.962;5.340;2022-09-28T09:48:57;1.50;;;0.20;;
40847;SDS011;26570;50.962;5.340;2022-09-28T09:51:55;2.23;;;0.20;;
40847;SDS011;26570;50.962;5.340;2022-09-28T09:54:51;3.23;;;0.20;;
40847;SDS011;26570;50.962;5.340;2022-09-28T09:57:50;2.43;;;0.20;;
40847;SDS011;26570;50.962;5.340;2022-09-28T10:00:41;3.30;;;0.20;;
40847;SDS011;26570;50.962;5.340;2022-09-28T10:03:30;1.83;;;0.30;;
40847;SDS011;26570;50.962;5.340;2022-09-28T10:06:24;1.53;;;0.20;;
40847;SDS011;26570;50.962;5.340;2022-09-28T10:09:23;2.23;;;0.20;;
40847;SDS011;26570;50.962;5.340;2022-09-28T10:12:17;4.60;;;0.20;;
40847;SDS011;26570;50.962;5.340;2022-09-28T10:15:05;1.70;;;0.20;;
40847;SDS011;26570;50.962;5.340;2022-09-28T10:17:51;2.20;;;0.17;;
40847;SDS011;26570;50.962;5.340;2022-09-28T10:20:38;2.13;;;0.13;;
40847;SDS011;26570;50.962;5.340;2022-09-28T10:23:27;1.43;;;0.10;;
40847;SDS011;26570;50.962;5.340;2022-09-28T10:26:22;1.60;;;0.20;;
40847;SDS011;26570;50.962;5.340;2022-09-28T10:29:15;1.57;;;0.10;;
40847;SDS011;26570;50.962;5.340;2022-09-28T10:32:16;1.80;;;0.20;;
40847;SDS011;26570;50.962;5.340;2022-09-28T10:38:04;2.83;;;0.13;;
40847;SDS011;26570;50.962;5.340;2022-09-28T10:41:08;4.10;;;0.20;;
40847;SDS011;26570;50.962;5.340;2022-09-28T10:43:57;3.23;;;0.20;;
40847;SDS011;26570;50.962;5.340;2022-09-28T10:47:00;7.22;;;0.10;;
40847;SDS011;26570;50.962;5.340;2022-09-28T10:49:48;2.33;;;0.20;;
40847;SDS011;26570;50.962;5.340;2022-09-28T10:52:39;2.57;;;0.70;;
40847;SDS011;26570;50.962;5.340;2022-09-28T10:55:27;1.57;;;0.20;;
40847;SDS011;26570;50.962;5.340;2022-09-28T10:58:16;3.90;;;0.10;;
40847;SDS011;26570;50.962;5.340;2022-09-28T11:01:13;3.10;;;0.20;;
40847;SDS011;26570;50.962;5.340;2022-09-28T11:04:12;4.30;;;0.10;;
40847;SDS011;26570;50.962;5.340;2022-09-28T11:07:11;1.00;;;0.10;;
40847;SDS011;26570;50.962;5.340;2022-09-28T11:10:15;1.83;;;0.10;;
40847;SDS011;26570;50.962;5.340;2022-09-28T11:13:07;3.43;;;0.20;;
40847;SDS011;26570;50.962;5.340;2022-09-28T11:15:53;2.67;;;0.10;;
40847;SDS011;26570;50.962;5.340;2022-09-28T11:18:40;0.77;;;0.10;;
40847;SDS011;26570;50.962;5.340;2022-09-28T11:21:29;1.80;;;0.10;;
40847;SDS011;26570;50.962;5.340;2022-09-28T11:24:23;0.77;;;0.10;;
40847;SDS011;26570;50.962;5.340;2022-09-28T11:27:19;1.90;;;0.10;;
40847;SDS011;26570;50.962;5.340;2022-09-28T11:33:30;3.80;;;0.10;;
40847;SDS011;26570;50.962;5.340;2022-09-28T11:36:24;1.17;;;0.10;;
40847;SDS011;26570;50.962;5.340;2022-09-28T11:39:35;2.63;;;0.20;;
40847;SDS011;26570;50.962;5.340;2022-09-28T11:42:38;1.77;;;0.20;;
40847;SDS011;26570;50.962;5.340;2022-09-28T11:45:39;1.37;;;0.10;;
40847;SDS011;26570;50.962;5.340;2022-09-28T11:48:38;4.87;;;0.20;;
40847;SDS011;26570;50.962;5.340;2022-09-28T11:51:34;2.43;;;0.20;;
40847;SDS011;26570;50.962;5.340;2022-09-28T11:54:28;3.60;;;0.10;;
40847;SDS011;26570;50.962;5.340;2022-09-28T11:57:28;2.97;;;0.20;;
40847;SDS011;26570;50.962;5.340;2022-09-28T12:00:20;2.03;;;0.20;;
40847;SDS011;26570;50.962;5.340;2022-09-28T12:03:07;5.37;;;0.20;;
40847;SDS011;26570;50.962;5.340;2022-09-28T12:05:58;2.43;;;0.17;;
40847;SDS011;26570;50.962;5.340;2022-09-28T12:08:50;4.83;;;0.10;;
40847;SDS011;26570;50.962;5.340;2022-09-28T12:11:41;2.57;;;0.30;;
40847;SDS011;26570;50.962;5.340;2022-09-28T12:14:29;2.80;;;0.27;;
40847;SDS011;26570;50.962;5.340;2022-09-28T12:17:23;1.67;;;0.10;;
40847;SDS011;26570;50.962;5.340;2022-09-28T12:20:23;0.90;;;0.20;;
40847;SDS011;26570;50.962;5.340;2022-09-28T12:23:17;1.77;;;0.10;;
40847;SDS011;26570;50.962;5.340;2022-09-28T12:26:14;2.33;;;0.20;;
40847;SDS011;26570;50.962;5.340;2022-09-28T12:29:11;2.87;;;0.20;;
40847;SDS011;26570;50.962;5.340;2022-09-28T12:34:57;2.53;;;0.10;;
40847;SDS011;26570;50.962;5.340;2022-09-28T12:40:56;2.27;;;0.10;;
40847;SDS011;26570;50.962;5.340;2022-09-28T12:44:17;2.53;;;0.10;;
40847;SDS011;26570;50.962;5.340;2022-09-28T12:50:26;1.53;;;0.43;;
40847;SDS011;26570;50.962;5.340;2022-09-28T12:53:35;0.57;;;0.10;;
40847;SDS011;26570;50.962;5.340;2022-09-28T12:56:56;0.77;;;0.07;;
40847;SDS011;26570;50.962;5.340;2022-09-28T13:18:08;2.53;;;0.10;;
40847;SDS011;26570;50.962;5.340;2022-09-28T13:24:10;0.60;;;0.10;;
40847;SDS011;26570;50.962;5.340;2022-09-28T13:27:11;1.40;;;0.10;;
40847;SDS011;26570;50.962;5.340;2022-09-28T13:29:59;0.80;;;0.10;;
40847;SDS011;26570;50.962;5.340;2022-09-28T13:32:49;1.17;;;0.10;;
40847;SDS011;26570;50.962;5.340;2022-09-28T13:35:40;0.77;;;0.10;;
40847;SDS011;26570;50.962;5.340;2022-09-28T13:41:13;1.30;;;0.20;;
40847;SDS011;26570;50.962;5.340;2022-09-28T13:52:43;1.97;;;0.20;;
40847;SDS011;26570;50.962;5.340;2022-09-28T13:58:35;3.97;;;0.30;;
40847;SDS011;26570;50.962;5.340;2022-09-28T14:04:22;2.38;;;0.20;;
40847;SDS011;26570;50.962;5.340;2022-09-28T14:07:19;0.77;;;0.10;;
40847;SDS011;26570;50.962;5.340;2022-09-28T14:10:21;1.30;;;0.10;;
40847;SDS011;26570;50.962;5.340;2022-09-28T14:16:28;1.90;;;0.17;;
40847;SDS011;26570;50.962;5.340;2022-09-28T14:19:22;8.33;;;0.20;;
40847;SDS011;26570;50.962;5.340;2022-09-28T14:22:27;3.70;;;0.57;;
40847;SDS011;26570;50.962;5.340;2022-09-28T14:25:39;2.97;;;0.20;;
40847;SDS011;26570;50.962;5.340;2022-09-28T14:28:34;1.03;;;0.20;;
40847;SDS011;26570;50.962;5.340;2022-09-28T14:31:44;3.30;;;0.17;;
40847;SDS011;26570;50.962;5.340;2022-09-28T14:34:33;7.27;;;0.20;;
40847;SDS011;26570;50.962;5.340;2022-09-28T14:37:31;0.98;;;0.10;;
40847;SDS011;26570;50.962;5.340;2022-09-28T14:40:58;1.02;;;0.20;;
40847;SDS011;26570;50.962;5.340;2022-09-28T14:47:23;1.97;;;0.20;;
40847;SDS011;26570;50.962;5.340;2022-09-28T14:53:09;3.73;;;0.20;;
40847;SDS011;26570;50.962;5.340;2022-09-28T14:55:57;0.87;;;0.20;;
40847;SDS011;26570;50.962;5.340;2022-09-28T14:58:44;1.80;;;0.30;;
40847;SDS011;26570;50.962;5.340;2022-09-28T15:01:36;4.30;;;0.40;;
40847;SDS011;26570;50.962;5.340;2022-09-28T15:04:23;1.90;;;0.30;;
40847;SDS011;26570;50.962;5.340;2022-09-28T15:07:18;2.73;;;0.33;;
40847;SDS011;26570;50.962;5.340;2022-09-28T15:10:05;2.40;;;0.20;;
40847;SDS011;26570;50.962;5.340;2022-09-28T15:13:16;0.87;;;0.20;;
40847;SDS011;26570;50.962;5.340;2022-09-28T15:16:05;1.00;;;0.20;;
40847;SDS011;26570;50.962;5.340;2022-09-28T15:21:51;1.23;;;0.20;;
40847;SDS011;26570;50.962;5.340;2022-09-28T15:24:37;3.33;;;0.27;;
40847;SDS011;26570;50.962;5.340;2022-09-28T15:27:23;1.20;;;0.30;;
40847;SDS011;26570;50.962;5.340;2022-09-28T15:30:17;2.83;;;0.20;;
40847;SDS011;26570;50.962;5.340;2022-09-28T15:33:03;1.13;;;0.20;;
40847;SDS011;26570;50.962;5.340;2022-09-28T15:38:58;0.90;;;0.27;;
40847;SDS011;26570;50.962;5.340;2022-09-28T15:41:46;3.03;;;0.30;;
40847;SDS011;26570;50.962;5.340;2022-09-28T15:44:36;1.07;;;0.30;;
40847;SDS011;26570;50.962;5.340;2022-09-28T15:47:26;0.67;;;0.20;;
40847;SDS011;26570;50.962;5.340;2022-09-28T15:50:20;2.77;;;0.60;;
40847;SDS011;26570;50.962;5.340;2022-09-28T15:53:13;5.40;;;0.23;;
40847;SDS011;26570;50.962;5.340;2022-09-28T15:56:02;1.40;;;0.20;;
40847;SDS011;26570;50.962;5.340;2022-09-28T16:04:48;1.00;;;0.40;;
40847;SDS011;26570;50.962;5.340;2022-09-28T16:07:47;3.23;;;0.30;;
40847;SDS011;26570;50.962;5.340;2022-09-28T16:10:37;1.80;;;0.20;;
40847;SDS011;26570;50.962;5.340;2022-09-28T16:14:00;2.63;;;0.30;;
40847;SDS011;26570;50.962;5.340;2022-09-28T16:16:50;1.90;;;0.40;;
40847;SDS011;26570;50.962;5.340;2022-09-28T16:19:37;3.10;;;0.50;;
40847;SDS011;26570;50.962;5.340;2022-09-28T16:22:24;0.90;;;0.27;;
40847;SDS011;26570;50.962;5.340;2022-09-28T16:25:21;1.57;;;0.30;;
40847;SDS011;26570;50.962;5.340;2022-09-28T16:28:11;2.80;;;0.50;;
40847;SDS011;26570;50.962;5.340;2022-09-28T16:31:24;4.40;;;0.57;;
40847;SDS011;26570;50.962;5.340;2022-09-28T16:34:19;11.10;;;2.23;;
40847;SDS011;26570;50.962;5.340;2022-09-28T16:37:21;27.33;;;8.50;;
40847;SDS011;26570;50.962;5.340;2022-09-28T16:40:16;22.77;;;8.10;;
40847;SDS011;26570;50.962;5.340;2022-09-28T16:43:03;19.47;;;6.83;;
40847;SDS011;26570;50.962;5.340;2022-09-28T16:46:00;19.40;;;7.53;;
40847;SDS011;26570;50.962;5.340;2022-09-28T16:48:52;16.20;;;5.10;;
40847;SDS011;26570;50.962;5.340;2022-09-28T16:51:38;3.23;;;0.70;;
40847;SDS011;26570;50.962;5.340;2022-09-28T16:54:24;8.30;;;1.07;;
40847;SDS011;26570;50.962;5.340;2022-09-28T16:57:27;5.57;;;0.83;;
40847;SDS011;26570;50.962;5.340;2022-09-28T17:00:14;16.50;;;1.53;;
40847;SDS011;26570;50.962;5.340;2022-09-28T17:03:01;5.63;;;1.00;;
40847;SDS011;26570;50.962;5.340;2022-09-28T17:08:40;4.00;;;1.03;;
40847;SDS011;26570;50.962;5.340;2022-09-28T17:11:26;3.63;;;0.60;;
40847;SDS011;26570;50.962;5.340;2022-09-28T17:14:11;5.90;;;0.50;;
40847;SDS011;26570;50.962;5.340;2022-09-28T17:16:56;3.17;;;0.63;;
40847;SDS011;26570;50.962;5.340;2022-09-28T17:19:42;2.23;;;0.70;;
40847;SDS011;26570;50.962;5.340;2022-09-28T17:25:43;3.00;;;1.38;;
40847;SDS011;26570;50.962;5.340;2022-09-28T17:28:30;6.20;;;2.33;;
40847;SDS011;26570;50.962;5.340;2022-09-28T17:31:18;3.87;;;1.20;;
40847;SDS011;26570;50.962;5.340;2022-09-28T17:34:03;5.67;;;1.20;;
40847;SDS011;26570;50.962;5.340;2022-09-28T17:36:50;7.03;;;0.97;;
40847;SDS011;26570;50.962;5.340;2022-09-28T17:39:36;4.70;;;0.80;;
40847;SDS011;26570;50.962;5.340;2022-09-28T17:42:23;4.47;;;0.90;;
40847;SDS011;26570;50.962;5.340;2022-09-28T17:45:09;5.07;;;1.03;;
40847;SDS011;26570;50.962;5.340;2022-09-28T17:48:04;2.30;;;0.87;;
40847;SDS011;26570;50.962;5.340;2022-09-28T17:51:00;3.50;;;1.03;;
40847;SDS011;26570;50.962;5.340;2022-09-28T17:53:46;8.87;;;1.70;;
40847;SDS011;26570;50.962;5.340;2022-09-28T17:56:31;3.17;;;1.33;;
40847;SDS011;26570;50.962;5.340;2022-09-28T17:59:17;5.00;;;1.17;;
40847;SDS011;26570;50.962;5.340;2022-09-28T18:02:03;3.83;;;0.70;;
40847;SDS011;26570;50.962;5.340;2022-09-28T18:04:50;6.37;;;1.00;;
40847;SDS011;26570;50.962;5.340;2022-09-28T18:07:36;9.70;;;1.40;;
40847;SDS011;26570;50.962;5.340;2022-09-28T18:10:23;3.70;;;0.90;;
40847;SDS011;26570;50.962;5.340;2022-09-28T18:13:10;3.60;;;1.00;;
40847;SDS011;26570;50.962;5.340;2022-09-28T18:15:57;4.57;;;1.20;;
40847;SDS011;26570;50.962;5.340;2022-09-28T18:18:44;6.23;;;2.73;;
40847;SDS011;26570;50.962;5.340;2022-09-28T18:21:31;6.60;;;4.50;;
40847;SDS011;26570;50.962;5.340;2022-09-28T18:24:18;8.63;;;3.93;;
40847;SDS011;26570;50.962;5.340;2022-09-28T18:27:05;8.67;;;2.00;;
40847;SDS011;26570;50.962;5.340;2022-09-28T18:29:51;6.23;;;2.50;;
40847;SDS011;26570;50.962;5.340;2022-09-28T18:32:37;7.57;;;2.17;;
40847;SDS011;26570;50.962;5.340;2022-09-28T18:35:24;4.37;;;2.63;;
40847;SDS011;26570;50.962;5.340;2022-09-28T18:38:10;7.60;;;3.50;;
40847;SDS011;26570;50.962;5.340;2022-09-28T18:40:56;7.80;;;2.77;;
40847;SDS011;26570;50.962;5.340;2022-09-28T18:46:36;6.23;;;2.40;;
40847;SDS011;26570;50.962;5.340;2022-09-28T18:49:23;7.03;;;2.73;;
40847;SDS011;26570;50.962;5.340;2022-09-28T18:52:09;6.37;;;2.67;;
40847;SDS011;26570;50.962;5.340;2022-09-28T18:54:55;5.13;;;2.40;;
40847;SDS011;26570;50.962;5.340;2022-09-28T18:57:42;10.97;;;5.93;;
40847;SDS011;26570;50.962;5.340;2022-09-28T19:00:30;10.63;;;5.03;;
40847;SDS011;26570;50.962;5.340;2022-09-28T19:03:15;12.30;;;5.60;;
40847;SDS011;26570;50.962;5.340;2022-09-28T19:06:07;9.40;;;5.43;;
40847;SDS011;26570;50.962;5.340;2022-09-28T19:08:55;22.03;;;12.87;;
40847;SDS011;26570;50.962;5.340;2022-09-28T19:11:42;19.50;;;13.53;;
40847;SDS011;26570;50.962;5.340;2022-09-28T19:14:28;23.07;;;14.67;;
40847;SDS011;26570;50.962;5.340;2022-09-28T19:17:13;46.80;;;27.33;;
40847;SDS011;26570;50.962;5.340;2022-09-28T19:20:00;53.43;;;27.60;;
40847;SDS011;26570;50.962;5.340;2022-09-28T19:22:48;48.07;;;28.73;;
40847;SDS011;26570;50.962;5.340;2022-09-28T19:25:35;42.60;;;24.07;;
40847;SDS011;26570;50.962;5.340;2022-09-28T19:28:24;60.27;;;31.93;;
40847;SDS011;26570;50.962;5.340;2022-09-28T19:31:11;36.80;;;23.60;;
40847;SDS011;26570;50.962;5.340;2022-09-28T19:33:58;32.07;;;19.97;;
40847;SDS011;26570;50.962;5.340;2022-09-28T19:36:45;35.30;;;20.87;;